Flight ASX205X

  • Submitted By: Lukasz Przybylak
  • Departure Airport: Gdansk im. Lecha Walesy (EPGD)
  • Arrival Airport: Katowice Pyrzowice (EPKT)
  • Aircraft: KING AIR 350 (SP-DBL)
  • Flight Time: 01.59.14
  • Date Submitted: 09/12/2017
  • Route: IRLUN N133 NEGUV M66 KUKAM
  • Status: Accepted
Flight Details
Gross Revenue:
(8 load / € 80.00 per unit
€ 640.00
Fuel Cost:
(318.875 fuel used @ 0.45 / unit)
€ 143.49

Additional Log Information:

View Log

[18:51] - CARENADO B350i King Air N24YG
[18:51] - Flight ASX205X is ready to depart EPGD with a final destination of EPKT.
[18:51] - Boarding
[18:52] - Engine 1 Started
[18:52] - Engine 2 Started
[18:57] - Navigation Lights ON 3AGL
[18:57] - Beacon Light ON 3AGL
[19:02] - Taxi Lights ON 3AGL
[19:02] - Wing Lights ON 3AGL
[19:02] - Recognition Lights ON 3AGL
[19:02] - Parking Brake Released
[19:03] - Pushing Back from the gate
[19:04] - Taxiing to Runway
[19:07] - Landing Lights ON 3AGL
[19:07] - Taxi Lights OFF 3AGL
[19:07] - Strobe Lights ON 3AGL
[19:08] - Flaps to position 1
[19:08] - Taking Off with 8 passengers on board
[19:08] - Take off at 125kts, with a pitch of 5deg and 2964lbs of fuel on board
[19:08] - Wind Heading 255 | Wind Speed 10kts | Temperature 18 deg C
[19:08] - METAR Departure: EPGD 121630Z 23010KT CAVOK 17/10 Q1004

[19:09] - Climbing to TOC
[19:09] - Flaps to position 0 at 1076ft and 138kts
[19:09] - Gear up at 774AGL
[19:09] - AutoPilot Engaged at 1004AGL
[19:24] - TOC reached
[19:24] - Cruise started
[19:25] - Landing Lights OFF 18481AGL
[19:38] - Instrument Lights ON 18487AGL
[20:24] - AutoPilot Disengaged at 18570AGL
[20:25] - AutoPilot Engaged at 18999AGL
[20:27] - TOD reached
[20:27] - Descending to destination
[20:33] - Landing Lights ON 8156AGL
[20:35] - Landing Shortly
[20:37] - NAV1 - 109.90
[20:39] - Gear down at 2369AGL
[20:39] - Flaps to position 1 at 3451ft and 172kts
[20:41] - Flaps to position 2 at 2454ft and 141kts
[20:43] - AutoPilot Disengaged at 470AGL
[20:44] - Landed at -209fpm. With 2314lbs of fuel onboard and a pitch angle of -2deg.
[20:44] - Wind Heading 281 | Wind Speed 11kts | Temperature 12 deg C
[20:44] - METAR Arrival: EPKT 121830Z 28004KT 9999 -RA FEW026 SCT046 12/10 Q1009 RESHRA

[20:44] - Taxiing to Gate
[20:45] - Parking Brake Applied
[20:45] - Arrived safely at EPKT. We hope you enjoyed your flight!
[20:46] - Strobe Lights OFF 6AGL
[20:46] - Landing Lights OFF 6AGL
[20:46] - Taxi Lights ON 6AGL
[20:46] - Flaps to position 1
[20:46] - Flaps to position 0
[20:47] - Parking Brake Released
[20:47] - Taxiing to Gate
[20:49] - Parking Brake Applied
[20:49] - Arrived safely at EPKT. We hope you enjoyed your flight!
[20:49] - Engine 1 Stopped
[20:49] - Engine 2 Stopped
[20:49] - Taxi Lights OFF 6AGL
[20:49] - Wing Lights OFF 6AGL
[20:49] - Recognition Lights OFF 6AGL
[20:50] - Navigation Lights OFF 6AGL
[20:50] - Beacon Lights OFF 6AGL
[20:51] - CARENADO B350i King Air N24YG
[20:51] - MaxSim Rate: 1x
[20:51] - SiouxAcars ver: 1.0.1.2

Route Map